Time;durP1;ratioP1;P1;durP2;ratioP2;P2;SDS_P1;SDS_P2;PMS_P1;PMS_P2;Temp;Humidity;BMP_temperature;BMP_pressure;BME280_temperature;BME280_humidity;BME280_pressure;Samples;Min_cycle;Max_cycle;Signal;HPM_P1;HPM_P2
2022/01/05 00:02:05;;;;;;;13.27;3.27;;;4.50;99.90;;;;;;5039508;28;20207;-82
2022/01/05 00:04:30;;;;;;;7.07;3.73;;;4.50;99.90;;;;;;5038349;28;20176;-81
2022/01/05 00:06:56;;;;;;;6.57;3.80;;;4.40;99.90;;;;;;5039171;28;20211;-81
2022/01/05 00:09:21;;;;;;;6.27;3.70;;;4.40;99.90;;;;;;5039951;28;20275;-81
2022/01/05 00:11:47;;;;;;;7.37;3.60;;;4.40;99.90;;;;;;5040012;28;20218;-81
2022/01/05 00:14:12;;;;;;;9.23;3.30;;;4.30;99.90;;;;;;5036501;28;20184;-81
2022/01/05 00:16:38;;;;;;;5.07;2.50;;;4.40;99.90;;;;;;5037022;28;20210;-81
2022/01/05 00:19:03;;;;;;;8.87;2.90;;;4.30;99.90;;;;;;5037305;28;20540;-81
2022/01/05 00:21:29;;;;;;;8.00;2.70;;;4.30;99.90;;;;;;5037385;28;20210;-81
2022/01/05 00:23:55;;;;;;;9.53;3.20;;;4.30;99.90;;;;;;5037000;28;20275;-81
2022/01/05 00:26:20;;;;;;;12.00;3.10;;;4.30;99.90;;;;;;5038752;28;20168;-81
2022/01/05 00:28:46;;;;;;;10.57;3.57;;;4.20;99.90;;;;;;5037737;28;20200;-81
2022/01/05 00:31:12;;;;;;;16.83;3.50;;;4.30;99.90;;;;;;5037958;28;20176;-81
2022/01/05 00:33:37;;;;;;;17.80;5.27;;;4.30;99.90;;;;;;5036225;28;20654;-81
2022/01/05 00:36:04;;;;;;;25.43;6.23;;;4.30;99.90;;;;;;5036592;28;20533;-81
2022/01/05 00:38:29;;;;;;;17.80;4.37;;;4.20;99.90;;;;;;5036556;28;20637;-81
2022/01/05 00:40:55;;;;;;;16.00;3.87;;;4.20;99.90;;;;;;5039038;28;20177;-81
2022/01/05 00:43:20;;;;;;;17.10;4.60;;;4.20;99.90;;;;;;5037898;28;20176;-81
2022/01/05 00:45:46;;;;;;;21.27;5.30;;;4.20;99.90;;;;;;5036950;28;20220;-81
2022/01/05 00:48:11;;;;;;;15.60;4.23;;;4.10;99.90;;;;;;5036760;28;20203;-81
2022/01/05 00:50:37;;;;;;;14.37;3.57;;;4.10;99.90;;;;;;5038917;28;20274;-81
2022/01/05 00:53:02;;;;;;;14.50;3.03;;;4.20;99.90;;;;;;5038358;28;20223;-81
2022/01/05 00:55:29;;;;;;;10.53;2.87;;;4.20;99.90;;;;;;5038283;28;20238;-81
2022/01/05 00:57:55;;;;;;;9.23;2.30;;;4.20;99.90;;;;;;5035064;28;20746;-82
2022/01/05 01:00:21;;;;;;;12.17;2.47;;;4.10;99.90;;;;;;5034828;28;20210;-81
2022/01/05 01:02:46;;;;;;;15.70;1.80;;;4.10;99.90;;;;;;5037941;28;20172;-81
2022/01/05 01:05:14;;;;;;;7.23;1.37;;;4.10;99.90;;;;;;5039411;28;20179;-81
2022/01/05 01:07:40;;;;;;;13.67;2.57;;;4.10;99.90;;;;;;5037301;28;20249;-81
2022/01/05 01:10:06;;;;;;;5.70;1.87;;;4.10;99.90;;;;;;5038520;28;20176;-81
2022/01/05 01:12:34;;;;;;;5.70;1.60;;;4.10;99.90;;;;;;5035566;28;20222;-81
2022/01/05 01:15:00;;;;;;;5.83;1.97;;;4.10;99.90;;;;;;5037880;28;20176;-81
2022/01/05 01:17:26;;;;;;;5.83;1.70;;;4.10;99.90;;;;;;5036672;28;20216;-81
2022/01/05 01:19:51;;;;;;;9.50;1.80;;;4.00;99.90;;;;;;5036453;28;20647;-82
2022/01/05 01:22:17;;;;;;;8.77;1.77;;;4.00;99.90;;;;;;5034038;28;20184;-81
2022/01/05 01:24:43;;;;;;;7.90;1.93;;;4.00;99.90;;;;;;5034314;28;20184;-81
2022/01/05 01:27:08;;;;;;;5.23;1.90;;;4.00;99.90;;;;;;5033757;28;20211;-82
2022/01/05 01:29:34;;;;;;;7.57;1.60;;;4.00;99.90;;;;;;5033279;28;20267;-81
2022/01/05 01:31:59;;;;;;;7.77;2.17;;;4.00;99.90;;;;;;5034951;28;20219;-81
2022/01/05 01:34:25;;;;;;;6.43;2.50;;;4.00;99.90;;;;;;5034901;28;20169;-82
2022/01/05 01:36:50;;;;;;;10.53;2.50;;;4.00;99.90;;;;;;5035226;28;20649;-81
2022/01/05 01:39:16;;;;;;;6.90;2.83;;;4.00;99.90;;;;;;5034714;28;20251;-82
2022/01/05 01:41:41;;;;;;;6.90;3.00;;;4.00;99.90;;;;;;5035433;28;20307;-81
2022/01/05 01:44:07;;;;;;;5.67;2.97;;;3.90;99.90;;;;;;5033531;28;20172;-81
2022/01/05 01:46:33;;;;;;;14.10;2.97;;;4.30;99.90;;;;;;5033448;28;20180;-81
2022/01/05 01:48:58;;;;;;;10.43;3.50;;;3.90;99.90;;;;;;5038170;28;20594;-81
2022/01/05 01:51:24;;;;;;;11.03;3.40;;;3.90;99.90;;;;;;5038755;28;20180;-81
2022/01/05 01:53:50;;;;;;;9.03;3.40;;;3.90;99.90;;;;;;5034437;28;20171;-82
2022/01/05 01:56:17;;;;;;;12.53;4.07;;;3.90;99.90;;;;;;5032956;28;20199;-81
2022/01/05 01:58:45;;;;;;;6.80;3.37;;;3.80;99.90;;;;;;5034080;28;20216;-81
2022/01/05 02:01:12;;;;;;;6.10;3.10;;;3.80;99.90;;;;;;5034548;28;20176;-81
2022/01/05 02:03:38;;;;;;;10.80;3.63;;;3.80;99.90;;;;;;5037467;28;20580;-81
2022/01/05 02:06:03;;;;;;;12.37;3.67;;;3.90;99.90;;;;;;5036441;28;20194;-81
2022/01/05 02:08:29;;;;;;;11.13;3.93;;;3.80;99.90;;;;;;5032252;28;20212;-81
2022/01/05 02:10:55;;;;;;;14.20;3.80;;;3.80;99.90;;;;;;5033024;28;20183;-82
2022/01/05 02:13:20;;;;;;;11.13;3.53;;;3.80;99.90;;;;;;5034384;28;20557;-82
2022/01/05 02:15:46;;;;;;;9.73;3.97;;;3.80;99.90;;;;;;5032837;28;20205;-81
2022/01/05 02:21:05;;;;;;;12.73;3.00;;;3.80;99.90;;;;;;5034025;28;20160;-81
2022/01/05 02:23:32;;;;;;;11.17;3.37;;;3.80;99.90;;;;;;5040769;28;20152;-81
2022/01/05 02:25:58;;;;;;;13.03;3.53;;;3.70;99.90;;;;;;5040842;28;20168;-81
2022/01/05 02:28:23;;;;;;;13.23;2.80;;;3.80;99.90;;;;;;5039615;28;20287;-81
2022/01/05 02:30:53;;;;;;;10.20;3.20;;;3.70;99.90;;;;;;5039610;28;20199;-81
2022/01/05 02:33:20;;;;;;;13.37;3.70;;;3.70;99.90;;;;;;5039773;28;20529;-81
2022/01/05 02:35:45;;;;;;;11.03;3.33;;;3.70;99.90;;;;;;5039897;28;20190;-81
2022/01/05 02:38:11;;;;;;;8.90;2.83;;;3.70;99.90;;;;;;5040799;28;20279;-81
2022/01/05 02:40:37;;;;;;;11.00;3.40;;;3.70;99.90;;;;;;5041790;28;20199;-81
2022/01/05 02:43:03;;;;;;;10.07;3.03;;;3.70;99.90;;;;;;5044254;28;20200;-81
2022/01/05 02:45:29;;;;;;;13.40;3.63;;;3.70;99.90;;;;;;5044640;28;20179;-81
2022/01/05 02:47:55;;;;;;;11.80;3.07;;;3.60;99.90;;;;;;5041862;28;20196;-82
2022/01/05 02:50:21;;;;;;;11.60;2.77;;;3.70;99.90;;;;;;5039198;28;20646;-81
2022/01/05 02:52:47;;;;;;;8.13;2.73;;;3.60;99.90;;;;;;5040878;28;20234;-82
2022/01/05 02:55:12;;;;;;;11.70;3.00;;;3.60;99.90;;;;;;5040931;28;20654;-81
2022/01/05 02:57:38;;;;;;;10.10;2.53;;;3.50;99.90;;;;;;5040727;28;20208;-81
2022/01/05 03:00:06;;;;;;;9.90;2.60;;;3.50;99.90;;;;;;5041028;28;20534;-81
2022/01/05 03:02:32;;;;;;;8.03;2.97;;;3.50;99.90;;;;;;5041507;28;20694;-81
2022/01/05 03:04:57;;;;;;;12.53;2.90;;;3.50;99.90;;;;;;5043460;28;20168;-81
2022/01/05 03:07:23;;;;;;;18.83;3.60;;;3.40;99.90;;;;;;5043440;28;20227;-79
2022/01/05 03:09:48;;;;;;;11.00;3.37;;;3.40;99.90;;;;;;5040609;28;20180;-79
2022/01/05 03:12:14;;;;;;;9.03;2.43;;;3.30;99.90;;;;;;5039405;28;20186;-80
2022/01/05 03:14:39;;;;;;;8.57;2.53;;;3.30;99.90;;;;;;5041135;28;20514;-79
2022/01/05 03:17:05;;;;;;;11.80;2.80;;;3.30;99.90;;;;;;5039285;28;20203;-80
2022/01/05 03:19:31;;;;;;;7.60;2.37;;;3.20;99.90;;;;;;5040263;28;20221;-79
2022/01/05 03:21:57;;;;;;;8.83;2.60;;;3.20;99.90;;;;;;5040244;28;20208;-79
2022/01/05 03:24:22;;;;;;;12.53;2.40;;;3.20;99.90;;;;;;5039773;28;20270;-81
2022/01/05 03:26:48;;;;;;;9.60;2.40;;;3.20;99.90;;;;;;5042845;28;20549;-80
2022/01/05 03:29:13;;;;;;;7.83;2.23;;;3.20;99.90;;;;;;5040031;28;20186;-79
2022/01/05 03:31:39;;;;;;;10.97;2.53;;;3.20;99.90;;;;;;5040362;28;20180;-79
2022/01/05 03:34:06;;;;;;;7.80;2.43;;;3.10;99.90;;;;;;5035345;28;20203;-79
2022/01/05 03:36:31;;;;;;;9.20;2.43;;;3.10;99.90;;;;;;5035469;28;20177;-79
2022/01/05 03:38:57;;;;;;;17.37;2.60;;;3.00;99.90;;;;;;5035819;28;20177;-79
2022/01/05 03:41:22;;;;;;;12.60;2.20;;;3.00;99.90;;;;;;5035095;28;20191;-79
2022/01/05 03:43:48;;;;;;;9.93;2.73;;;3.00;99.90;;;;;;5036361;28;20604;-79
2022/01/05 03:46:14;;;;;;;17.67;2.63;;;3.00;99.90;;;;;;5036807;28;20539;-79
2022/01/05 03:48:40;;;;;;;11.07;2.83;;;3.00;99.90;;;;;;5034818;28;20246;-79
2022/01/05 03:51:05;;;;;;;15.43;3.10;;;3.00;99.90;;;;;;5036337;28;20184;-80
2022/01/05 03:53:31;;;;;;;10.23;2.30;;;2.90;99.90;;;;;;5037386;28;20275;-79
2022/01/05 03:55:57;;;;;;;6.10;2.30;;;2.90;99.90;;;;;;5036566;28;20554;-79
2022/01/05 03:58:23;;;;;;;12.57;2.60;;;2.90;99.90;;;;;;5035952;28;20233;-79
2022/01/05 04:00:50;;;;;;;13.40;2.47;;;2.90;99.90;;;;;;5036906;28;20176;-79
2022/01/05 04:03:17;;;;;;;7.37;2.30;;;2.90;99.90;;;;;;5035471;28;20176;-79
2022/01/05 04:05:43;;;;;;;8.63;2.60;;;2.80;99.90;;;;;;5036228;28;20184;-79
2022/01/05 04:08:09;;;;;;;5.37;1.83;;;2.80;99.90;;;;;;5034836;28;20211;-79
2022/01/05 04:10:34;;;;;;;12.33;2.60;;;2.80;99.90;;;;;;5036213;28;20691;-79
2022/01/05 04:13:01;;;;;;;7.13;2.20;;;2.80;99.90;;;;;;5034882;28;20183;-79
2022/01/05 04:15:27;;;;;;;13.80;2.63;;;2.80;99.90;;;;;;5038130;28;20227;-79
2022/01/05 04:17:52;;;;;;;9.97;2.53;;;2.80;99.90;;;;;;5036595;28;20207;-79
2022/01/05 04:20:18;;;;;;;8.53;2.60;;;2.70;99.90;;;;;;5034986;28;20650;-79
2022/01/05 04:22:45;;;;;;;19.50;2.90;;;2.70;99.90;;;;;;5036727;28;20244;-79
2022/01/05 04:25:11;;;;;;;12.23;2.27;;;2.70;99.90;;;;;;5037443;28;20180;-79
2022/01/05 04:27:37;;;;;;;12.20;2.67;;;2.70;99.90;;;;;;5036601;28;20203;-79
2022/01/05 04:30:06;;;;;;;14.07;3.23;;;2.60;99.90;;;;;;5034414;28;20187;-80
2022/01/05 04:32:31;;;;;;;8.80;2.43;;;2.60;99.90;;;;;;5037862;28;20172;-79
2022/01/05 04:34:57;;;;;;;6.93;2.40;;;2.70;99.90;;;;;;5039214;28;20528;-79
2022/01/05 04:37:23;;;;;;;12.83;2.43;;;2.60;99.90;;;;;;5036212;28;20219;-79
2022/01/05 04:39:49;;;;;;;10.40;2.47;;;2.60;99.90;;;;;;5034948;28;20173;-79
2022/01/05 04:42:14;;;;;;;11.57;3.03;;;2.60;99.90;;;;;;5036196;28;20176;-79
2022/01/05 04:44:40;;;;;;;11.07;2.80;;;2.60;99.90;;;;;;5035179;28;20631;-79
2022/01/05 04:47:07;;;;;;;13.07;2.30;;;2.60;99.90;;;;;;5034985;28;20544;-79
2022/01/05 04:49:34;;;;;;;13.80;2.53;;;2.60;99.90;;;;;;5035365;28;20210;-79
2022/01/05 04:52:00;;;;;;;8.97;2.40;;;2.70;99.90;;;;;;5035412;28;20251;-79
2022/01/05 04:54:25;;;;;;;12.77;2.77;;;2.60;99.90;;;;;;5035616;28;20180;-79
2022/01/05 04:56:51;;;;;;;10.23;3.13;;;2.70;99.90;;;;;;5033905;28;20262;-79
2022/01/05 04:59:17;;;;;;;12.17;2.90;;;2.60;99.90;;;;;;5036299;28;20244;-79
2022/01/05 05:01:42;;;;;;;9.10;2.07;;;2.60;99.90;;;;;;5036487;28;20259;-79
2022/01/05 05:04:08;;;;;;;8.80;1.97;;;2.60;99.90;;;;;;5034487;28;20191;-79
2022/01/05 05:06:33;;;;;;;7.83;2.33;;;2.60;99.90;;;;;;5035225;28;20172;-79
2022/01/05 05:08:59;;;;;;;11.47;2.30;;;2.60;99.90;;;;;;5035954;28;20164;-79
2022/01/05 05:11:24;;;;;;;16.10;2.40;;;2.50;99.90;;;;;;5035670;28;20176;-79
2022/01/05 05:13:50;;;;;;;12.37;2.30;;;2.50;99.90;;;;;;5034645;28;20537;-80
2022/01/05 05:16:15;;;;;;;8.73;2.20;;;2.50;99.90;;;;;;5036133;28;20608;-79
2022/01/05 05:18:41;;;;;;;7.17;2.00;;;2.60;99.90;;;;;;5036178;28;20215;-79
2022/01/05 05:21:07;;;;;;;10.13;2.57;;;2.60;99.90;;;;;;5034583;28;20183;-79
2022/01/05 05:23:33;;;;;;;10.20;2.57;;;2.60;99.90;;;;;;5035779;28;20172;-79
2022/01/05 05:25:58;;;;;;;8.67;2.60;;;2.50;99.90;;;;;;5035112;28;20189;-79
2022/01/05 05:28:24;;;;;;;13.00;2.57;;;2.60;99.90;;;;;;5033906;28;20203;-79
2022/01/05 05:30:49;;;;;;;8.80;2.30;;;2.60;99.90;;;;;;5034727;28;20177;-80
2022/01/05 05:33:15;;;;;;;8.83;2.50;;;2.60;99.90;;;;;;5035109;28;20175;-80
2022/01/05 05:35:41;;;;;;;11.47;2.80;;;2.60;99.90;;;;;;5034818;28;20183;-78
2022/01/05 05:38:08;;;;;;;12.40;3.20;;;2.60;99.90;;;;;;5034865;28;20200;-79
2022/01/05 05:40:34;;;;;;;11.10;3.33;;;2.60;99.90;;;;;;5033746;28;20184;-79
2022/01/05 05:43:00;;;;;;;9.10;3.87;;;2.60;99.90;;;;;;5034566;28;20682;-79
2022/01/05 05:45:26;;;;;;;14.10;3.47;;;2.60;99.90;;;;;;5034868;28;20173;-79
2022/01/05 05:47:52;;;;;;;13.73;3.30;;;2.60;99.90;;;;;;5034680;28;20556;-79
2022/01/05 05:50:18;;;;;;;15.13;3.00;;;2.60;99.90;;;;;;5034737;28;20183;-79
2022/01/05 05:52:43;;;;;;;6.87;2.97;;;2.60;99.90;;;;;;5034686;28;20265;-79
2022/01/05 05:55:09;;;;;;;11.50;3.40;;;2.60;99.90;;;;;;5034838;28;20203;-79
2022/01/05 05:57:34;;;;;;;11.77;2.90;;;2.60;99.90;;;;;;5033701;28;20220;-79
2022/01/05 06:00:00;;;;;;;9.67;3.03;;;2.60;99.90;;;;;;5033529;28;20242;-79
2022/01/05 06:02:25;;;;;;;11.50;3.20;;;2.60;99.90;;;;;;5034561;28;20180;-79
2022/01/05 06:04:51;;;;;;;9.77;2.73;;;2.70;99.90;;;;;;5034853;28;20173;-79
2022/01/05 06:07:16;;;;;;;14.70;3.23;;;2.60;99.90;;;;;;5033032;28;20660;-79
2022/01/05 06:09:42;;;;;;;13.97;3.17;;;2.60;99.90;;;;;;5035337;28;20180;-79
2022/01/05 06:12:08;;;;;;;15.20;3.13;;;2.60;99.90;;;;;;5035820;28;20222;-80
2022/01/05 06:14:33;;;;;;;13.27;3.00;;;2.60;99.90;;;;;;5034284;28;20219;-80
2022/01/05 06:16:59;;;;;;;12.40;3.50;;;2.60;99.90;;;;;;5034574;28;20256;-79
2022/01/05 06:19:24;;;;;;;12.60;3.30;;;2.60;99.90;;;;;;5035403;28;20199;-79
2022/01/05 06:21:50;;;;;;;12.30;3.23;;;2.60;99.90;;;;;;5033884;28;20200;-79
2022/01/05 06:24:17;;;;;;;18.23;3.63;;;2.60;99.90;;;;;;5034417;28;20176;-79
2022/01/05 06:26:42;;;;;;;16.30;3.50;;;2.60;99.90;;;;;;5036771;28;20305;-80
2022/01/05 06:29:08;;;;;;;11.90;2.80;;;2.60;99.90;;;;;;5035327;28;20192;-79
2022/01/05 06:31:34;;;;;;;11.73;3.07;;;2.70;99.90;;;;;;5035250;28;20173;-79
2022/01/05 06:33:59;;;;;;;15.50;3.23;;;2.70;99.90;;;;;;5034543;28;20195;-80
2022/01/05 06:36:25;;;;;;;13.20;3.17;;;2.70;99.90;;;;;;5032981;28;20202;-79
2022/01/05 06:38:50;;;;;;;10.70;3.27;;;2.60;99.90;;;;;;5034475;28;20282;-79
2022/01/05 06:41:16;;;;;;;13.17;3.00;;;2.60;99.90;;;;;;5034432;28;20243;-79
2022/01/05 06:43:42;;;;;;;14.20;3.27;;;2.60;99.90;;;;;;5038127;28;20177;-79
2022/01/05 06:46:07;;;;;;;12.23;2.83;;;2.70;99.90;;;;;;5036060;28;20259;-79
2022/01/05 06:48:33;;;;;;;12.20;2.73;;;2.70;99.90;;;;;;5035146;28;20204;-77
2022/01/05 06:50:58;;;;;;;13.33;2.70;;;2.70;99.90;;;;;;5032925;28;20255;-78
2022/01/05 06:53:24;;;;;;;11.90;2.83;;;2.70;99.90;;;;;;5032647;28;20578;-78
2022/01/05 06:55:49;;;;;;;15.43;3.37;;;2.70;99.90;;;;;;5032788;28;20722;-78
2022/01/05 06:58:15;;;;;;;14.07;2.57;;;2.70;99.90;;;;;;5032551;28;20712;-78
2022/01/05 07:00:40;;;;;;;14.20;2.80;;;2.70;99.90;;;;;;5032648;28;20168;-78
2022/01/05 07:03:06;;;;;;;11.00;2.50;;;2.80;99.90;;;;;;5030995;28;20207;-78
2022/01/05 07:05:32;;;;;;;11.30;2.73;;;2.70;99.90;;;;;;5032368;28;20184;-78
2022/01/05 07:07:58;;;;;;;14.90;3.07;;;2.70;99.90;;;;;;5032748;28;20216;-78
2022/01/05 07:10:24;;;;;;;11.97;3.03;;;2.80;99.90;;;;;;5034986;28;20192;-78
2022/01/05 07:12:49;;;;;;;22.00;3.33;;;2.70;99.90;;;;;;5035646;28;20559;-78
2022/01/05 07:15:16;;;;;;;12.40;2.53;;;2.70;99.90;;;;;;5036431;28;20172;-78
2022/01/05 07:17:41;;;;;;;12.53;2.80;;;2.70;99.90;;;;;;5036025;28;20716;-78
2022/01/05 07:20:08;;;;;;;14.23;2.97;;;2.70;99.90;;;;;;5036135;28;20169;-78
2022/01/05 07:22:34;;;;;;;9.53;3.20;;;2.70;99.90;;;;;;5036322;28;20541;-78
2022/01/05 07:25:00;;;;;;;15.27;3.47;;;2.70;99.90;;;;;;5036050;28;20175;-79
2022/01/05 07:27:25;;;;;;;11.27;2.87;;;2.70;99.90;;;;;;5035871;28;20196;-78
2022/01/05 07:29:51;;;;;;;13.10;3.30;;;2.70;99.90;;;;;;5035945;28;20172;-78
2022/01/05 07:32:17;;;;;;;12.57;2.67;;;2.70;99.90;;;;;;5035943;28;20200;-78
2022/01/05 07:34:42;;;;;;;14.60;3.13;;;2.70;99.90;;;;;;5036050;28;20172;-79
2022/01/05 07:37:09;;;;;;;9.53;3.43;;;2.70;99.90;;;;;;5034435;28;20298;-78
2022/01/05 07:39:36;;;;;;;9.47;2.87;;;2.70;99.90;;;;;;5035152;28;20169;-78
2022/01/05 07:42:01;;;;;;;10.47;2.33;;;2.70;99.90;;;;;;5034606;28;20204;-78
2022/01/05 07:44:27;;;;;;;12.57;3.37;;;2.70;99.90;;;;;;5036015;28;20571;-78
2022/01/05 07:46:52;;;;;;;14.47;3.10;;;2.80;99.90;;;;;;5034360;28;20219;-78
2022/01/05 07:49:18;;;;;;;11.90;3.23;;;2.80;99.90;;;;;;5034493;28;20176;-80
2022/01/05 07:51:44;;;;;;;10.10;2.87;;;2.80;99.90;;;;;;5035895;28;20173;-78
2022/01/05 07:54:09;;;;;;;14.90;3.00;;;2.80;99.90;;;;;;5035613;28;20173;-78
2022/01/05 07:56:35;;;;;;;9.20;2.40;;;2.80;99.90;;;;;;5035329;28;20172;-79
2022/01/05 07:59:00;;;;;;;10.90;2.43;;;2.80;99.90;;;;;;5034138;28;20204;-78
2022/01/05 08:01:26;;;;;;;11.47;2.80;;;2.90;99.90;;;;;;5035577;28;20173;-78
2022/01/05 08:03:52;;;;;;;9.93;2.83;;;2.90;99.90;;;;;;5035734;28;20541;-79
2022/01/05 08:06:17;;;;;;;13.97;3.03;;;2.90;99.90;;;;;;5035509;28;20706;-79
2022/01/05 08:08:46;;;;;;;10.43;2.53;;;2.90;99.90;;;;;;5035279;28;20249;-78
2022/01/05 08:11:12;;;;;;;16.93;3.03;;;2.90;99.90;;;;;;5035447;28;20175;-79
2022/01/05 08:13:38;;;;;;;12.33;2.93;;;2.90;99.90;;;;;;5036393;28;20533;-79
2022/01/05 08:16:04;;;;;;;9.70;2.47;;;2.90;99.90;;;;;;5036528;28;20175;-79
2022/01/05 08:18:30;;;;;;;8.50;2.47;;;3.00;99.90;;;;;;5036420;28;20680;-79
2022/01/05 08:20:56;;;;;;;17.90;3.30;;;3.00;99.90;;;;;;5036771;28;20209;-79
2022/01/05 08:23:23;;;;;;;9.63;2.47;;;3.00;99.90;;;;;;5036574;28;20697;-79
2022/01/05 08:25:50;;;;;;;13.10;2.57;;;3.00;99.90;;;;;;5036001;28;20172;-78
2022/01/05 08:28:17;;;;;;;13.53;2.93;;;3.10;99.90;;;;;;5035098;28;20192;-78
2022/01/05 08:30:44;;;;;;;11.97;3.77;;;3.10;99.90;;;;;;5036294;28;20168;-79
2022/01/05 08:33:11;;;;;;;14.43;2.90;;;3.10;99.90;;;;;;5036284;28;20203;-80
2022/01/05 08:35:36;;;;;;;12.07;3.00;;;3.10;99.90;;;;;;5035846;28;20165;-79
2022/01/05 08:38:03;;;;;;;17.57;3.50;;;3.10;99.90;;;;;;5034116;28;20211;-79
2022/01/05 08:40:30;;;;;;;11.13;3.13;;;3.20;99.90;;;;;;5035946;28;20526;-80
2022/01/05 08:42:57;;;;;;;10.53;3.33;;;3.20;99.90;;;;;;5034635;28;20172;-79
2022/01/05 08:45:23;;;;;;;12.23;3.27;;;3.20;99.90;;;;;;5033162;28;20647;-78
2022/01/05 08:47:51;;;;;;;14.23;3.50;;;3.20;99.90;;;;;;5033492;28;20200;-78
2022/01/05 08:50:19;;;;;;;16.83;3.37;;;3.20;99.90;;;;;;5033402;28;20241;-78
2022/01/05 08:52:45;;;;;;;12.23;3.10;;;3.20;99.90;;;;;;5034956;28;20286;-78
2022/01/05 08:55:13;;;;;;;13.77;2.83;;;3.20;99.90;;;;;;5034841;28;20226;-78
2022/01/05 08:57:40;;;;;;;13.93;3.07;;;3.20;99.90;;;;;;5032843;28;20714;-78
2022/01/05 09:00:06;;;;;;;12.40;3.60;;;3.30;99.90;;;;;;5034963;28;20254;-79
2022/01/05 09:02:32;;;;;;;13.47;3.40;;;3.30;99.90;;;;;;5036214;28;20192;-78
2022/01/05 09:04:58;;;;;;;11.77;3.23;;;3.40;99.90;;;;;;5034972;28;20172;-78
2022/01/05 09:09:55;;;;;;;16.57;3.60;;;3.50;99.90;;;;;;5038407;23;20237;-77
2022/01/05 09:12:21;;;;;;;16.80;3.67;;;3.40;99.90;;;;;;5013730;28;20231;-77
2022/01/05 09:14:46;;;;;;;16.10;4.17;;;3.50;99.90;;;;;;5015365;28;20173;-76
2022/01/05 09:17:12;;;;;;;14.10;3.97;;;3.50;99.90;;;;;;5014216;28;20232;-76
2022/01/05 09:19:38;;;;;;;12.93;3.60;;;3.60;99.90;;;;;;5014381;28;20189;-77
2022/01/05 09:22:04;;;;;;;13.47;3.90;;;3.60;99.90;;;;;;5014248;28;20205;-76
2022/01/05 09:24:32;;;;;;;14.37;4.03;;;3.60;99.90;;;;;;5012623;28;20173;-76
2022/01/05 09:27:02;;;;;;;14.00;3.73;;;3.60;99.90;;;;;;5012860;28;20179;-76
2022/01/05 09:29:29;;;;;;;18.13;3.63;;;3.60;99.90;;;;;;5014010;28;20189;-76
2022/01/05 09:31:55;;;;;;;14.03;4.07;;;3.60;99.90;;;;;;5011929;28;20219;-74
2022/01/05 09:34:21;;;;;;;16.93;4.27;;;3.60;99.90;;;;;;5013923;28;20200;-76
2022/01/05 09:36:50;;;;;;;14.60;4.03;;;3.70;99.90;;;;;;5012540;28;20185;-75
2022/01/05 09:42:05;;;;;;;11.83;3.93;;;3.70;99.90;;;;;;5013838;28;20654;-75
2022/01/05 09:44:33;;;;;;;12.43;3.60;;;3.80;99.90;;;;;;5013772;28;20261;-76
2022/01/05 09:47:21;;;;;;;14.43;4.50;;;3.90;99.90;;;;;;5013629;28;20639;-77
2022/01/05 09:50:23;;;;;;;10.33;3.43;;;3.90;99.90;;;;;;5013956;28;20185;-76
2022/01/05 09:52:49;;;;;;;6.80;3.40;;;3.90;99.90;;;;;;4937352;29;20270;-77
2022/01/05 09:55:15;;;;;;;11.73;3.73;;;4.00;99.90;;;;;;5002086;28;20268;-76
2022/01/05 09:57:44;;;;;;;15.47;5.03;;;4.10;99.90;;;;;;5013237;28;20189;-77
2022/01/05 10:00:13;;;;;;;15.00;4.27;;;4.10;99.90;;;;;;5013825;28;20576;-76
2022/01/05 10:02:40;;;;;;;14.67;4.50;;;4.10;99.90;;;;;;5013487;28;20165;-76
2022/01/05 10:05:09;;;;;;;14.73;4.07;;;4.10;99.90;;;;;;5013574;28;20169;-76
2022/01/05 10:07:35;;;;;;;14.33;3.70;;;4.20;99.90;;;;;;5013447;28;20196;-78
2022/01/05 10:10:01;;;;;;;13.93;4.20;;;4.10;99.90;;;;;;5012316;28;20650;-77
2022/01/05 10:12:26;;;;;;;14.43;3.80;;;4.20;99.90;;;;;;5013562;28;20639;-76
2022/01/05 10:14:52;;;;;;;13.33;4.00;;;4.10;99.90;;;;;;5012204;28;20176;-77
2022/01/05 10:17:26;;;;;;;11.20;4.07;;;4.10;99.90;;;;;;5013234;28;20193;-76
2022/01/05 10:19:59;;;;;;;13.53;4.10;;;4.10;99.90;;;;;;5012317;28;20547;-76
2022/01/05 10:22:44;;;;;;;16.43;4.53;;;4.10;99.90;;;;;;5013651;28;20232;-76
2022/01/05 10:25:20;;;;;;;14.60;4.13;;;4.10;99.90;;;;;;5011951;28;20246;-76
2022/01/05 10:27:56;;;;;;;13.07;3.93;;;4.10;99.90;;;;;;5013207;28;20177;-76
2022/01/05 10:30:34;;;;;;;19.10;4.57;;;4.10;99.90;;;;;;5013860;28;20580;-76
2022/01/05 10:32:59;;;;;;;16.63;4.50;;;4.10;99.90;;;;;;5013774;28;20235;-78
2022/01/05 10:35:27;;;;;;;13.07;4.10;;;4.00;99.90;;;;;;5012520;28;20176;-77
2022/01/05 10:38:01;;;;;;;13.23;3.93;;;4.00;99.90;;;;;;5013276;28;20299;-76
2022/01/05 10:40:27;;;;;;;14.60;3.60;;;4.00;99.90;;;;;;5013512;28;20200;-75
2022/01/05 10:42:55;;;;;;;14.77;3.70;;;4.00;99.90;;;;;;5013304;28;20172;-76
2022/01/05 10:45:42;;;;;;;16.50;4.27;;;4.00;99.90;;;;;;5017364;28;20632;-76
2022/01/05 10:48:10;;;;;;;16.77;4.40;;;4.10;99.90;;;;;;5016756;28;20543;-76
2022/01/05 10:50:37;;;;;;;15.40;4.53;;;4.10;99.90;;;;;;5015620;28;20177;-76
2022/01/05 10:53:04;;;;;;;17.40;4.50;;;4.10;99.90;;;;;;5017893;28;20172;-77
2022/01/05 10:55:31;;;;;;;12.13;3.60;;;4.20;99.90;;;;;;5015712;28;20187;-76
2022/01/05 10:58:03;;;;;;;11.23;4.20;;;4.20;99.90;;;;;;5017788;28;20683;-78
2022/01/05 11:00:41;;;;;;;12.33;3.30;;;4.20;99.90;;;;;;5017443;28;20624;-77
2022/01/05 11:03:30;;;;;;;16.03;3.47;;;4.20;99.90;;;;;;5015281;28;20646;-77
2022/01/05 11:06:05;;;;;;;9.13;4.00;;;4.10;99.90;;;;;;5017227;28;20158;-76
2022/01/05 11:08:32;;;;;;;8.53;3.30;;;4.10;99.90;;;;;;5017027;28;20302;-76
2022/01/05 11:10:58;;;;;;;19.77;4.80;;;4.10;99.90;;;;;;5015665;28;20212;-77
2022/01/05 11:13:26;;;;;;;15.60;3.93;;;4.20;99.90;;;;;;5017115;28;20211;-78
2022/01/05 11:15:59;;;;;;;12.37;3.07;;;4.20;99.90;;;;;;5017408;28;20185;-75
2022/01/05 11:18:30;;;;;;;13.93;4.03;;;4.20;99.90;;;;;;5015238;28;20215;-77
2022/01/05 11:21:03;;;;;;;12.90;3.97;;;4.20;99.90;;;;;;5015660;28;20187;-77
2022/01/05 11:23:31;;;;;;;9.70;3.17;;;4.30;99.90;;;;;;5017209;28;20192;-77
2022/01/05 11:25:59;;;;;;;14.20;4.00;;;4.30;99.90;;;;;;5014974;28;20188;-78
2022/01/05 11:28:26;;;;;;;17.57;4.40;;;4.30;99.90;;;;;;5017078;28;20196;-78
2022/01/05 11:30:57;;;;;;;12.67;3.60;;;4.30;99.90;;;;;;5019297;28;20742;-79
2022/01/05 11:33:23;;;;;;;15.93;3.43;;;4.40;99.90;;;;;;5019432;28;20181;-79
2022/01/05 11:35:49;;;;;;;12.57;3.70;;;4.40;99.90;;;;;;5021415;28;20231;-78
2022/01/05 11:38:16;;;;;;;9.43;3.60;;;4.40;99.90;;;;;;5018909;28;20299;-78
2022/01/05 11:40:54;;;;;;;10.87;3.80;;;4.40;99.90;;;;;;5018917;28;20188;-79
2022/01/05 11:43:32;;;;;;;12.23;3.90;;;4.50;99.90;;;;;;5020322;28;20172;-78
2022/01/05 11:46:12;;;;;;;15.83;4.03;;;4.50;99.90;;;;;;5019968;28;20149;-78
2022/01/05 11:48:40;;;;;;;21.13;4.90;;;4.50;99.90;;;;;;5016650;28;20204;-76
2022/01/05 11:51:06;;;;;;;15.93;3.93;;;4.60;99.90;;;;;;5015980;28;20197;-76
2022/01/05 11:53:44;;;;;;;18.23;3.97;;;4.60;99.90;;;;;;5014559;28;20181;-76
2022/01/05 11:56:21;;;;;;;8.47;3.90;;;4.60;99.90;;;;;;5015078;28;20176;-76
2022/01/05 11:58:52;;;;;;;13.00;4.17;;;4.60;99.90;;;;;;5015854;28;20204;-77
2022/01/05 12:01:19;;;;;;;15.03;3.80;;;4.70;99.90;;;;;;5014676;28;20247;-76
2022/01/05 12:03:56;;;;;;;13.43;3.63;;;4.80;99.90;;;;;;5017403;28;20185;-77
2022/01/05 12:06:24;;;;;;;15.10;4.20;;;4.80;99.90;;;;;;5015812;28;20165;-77
2022/01/05 12:08:54;;;;;;;14.07;4.30;;;4.90;99.90;;;;;;5016496;28;20709;-78
2022/01/05 12:11:30;;;;;;;16.77;3.60;;;4.90;99.90;;;;;;5016547;28;20169;-77
2022/01/05 12:14:00;;;;;;;13.47;3.70;;;4.90;99.90;;;;;;5016126;28;20177;-77
2022/01/05 12:16:27;;;;;;;13.33;3.37;;;5.00;99.90;;;;;;5016315;28;20260;-76
2022/01/05 12:19:14;;;;;;;12.50;3.70;;;5.00;99.90;;;;;;5016156;28;20615;-76
2022/01/05 12:21:54;;;;;;;22.37;4.57;;;5.00;99.90;;;;;;5018879;28;20165;-78
2022/01/05 12:24:21;;;;;;;17.03;4.40;;;5.00;99.90;;;;;;5017499;28;20172;-79
2022/01/05 12:27:24;;;;;;;14.73;3.50;;;5.00;99.90;;;;;;5017133;28;20177;-79
2022/01/05 12:29:51;;;;;;;9.50;3.50;;;5.00;99.90;;;;;;4999718;28;20570;-79
2022/01/05 12:32:39;;;;;;;12.77;3.80;;;5.00;99.90;;;;;;4997451;28;20264;-79
2022/01/05 12:35:15;;;;;;;13.13;3.77;;;5.00;99.90;;;;;;4999134;28;20178;-79
2022/01/05 12:37:43;;;;;;;21.77;3.97;;;5.10;99.90;;;;;;4998711;28;20193;-79
2022/01/05 12:40:26;;;;;;;13.93;3.00;;;5.20;99.90;;;;;;5000580;28;20170;-79
2022/01/05 12:43:10;;;;;;;13.57;3.10;;;5.20;99.90;;;;;;5000263;28;20150;-79
2022/01/05 12:45:56;;;;;;;8.80;3.17;;;5.20;99.90;;;;;;5016540;28;20589;-77
2022/01/05 12:48:30;;;;;;;12.57;3.10;;;5.20;99.90;;;;;;5015508;28;20204;-77
2022/01/05 12:51:20;;;;;;;13.43;2.70;;;5.20;99.90;;;;;;5016304;28;20173;-76
2022/01/05 12:54:13;;;;;;;12.93;3.00;;;5.30;99.90;;;;;;5017198;28;20169;-77
2022/01/05 12:56:55;;;;;;;13.53;3.33;;;5.40;99.90;;;;;;5015328;28;20193;-76
2022/01/05 12:59:24;;;;;;;18.10;3.40;;;5.40;99.90;;;;;;5013585;28;20283;-77
2022/01/05 13:01:54;;;;;;;11.77;2.93;;;5.30;99.90;;;;;;5013363;28;20229;-77